Time;durP1;ratioP1;P1;durP2;ratioP2;P2;SDS_P1;SDS_P2;PMS_P1;PMS_P2;Temp;Humidity;BMP_temperature;BMP_pressure;BME280_temperature;BME280_humidity;BME280_pressure;Samples;Min_cycle;Max_cycle;Signal;HPM_P1;HPM_P2
2024/02/21 00:00:47;;;;;;;15.98;5.03;;;9.90;99.90;;;;;;5001650;28;20457;-82
2024/02/21 00:03:12;;;;;;;13.65;4.40;;;9.90;99.90;;;;;;5002276;28;20046;-83
2024/02/21 00:05:38;;;;;;;11.38;4.78;;;9.90;99.90;;;;;;5001476;28;20460;-83
2024/02/21 00:08:04;;;;;;;11.82;3.90;;;10.00;99.90;;;;;;5001373;28;20062;-83
2024/02/21 00:10:31;;;;;;;13.38;4.30;;;10.00;99.90;;;;;;5018317;28;20041;-83
2024/02/21 00:12:59;;;;;;;14.93;4.53;;;9.90;99.90;;;;;;5000844;28;20046;-83
2024/02/21 00:15:25;;;;;;;11.75;3.85;;;9.90;99.90;;;;;;5019828;28;20121;-82
2024/02/21 00:17:50;;;;;;;18.90;4.28;;;9.90;99.90;;;;;;5001596;28;20077;-82
2024/02/21 00:20:17;;;;;;;12.57;4.78;;;10.00;99.90;;;;;;5019308;28;20061;-82
2024/02/21 00:22:43;;;;;;;15.38;5.25;;;9.80;99.90;;;;;;4986630;28;20117;-83
2024/02/21 00:25:09;;;;;;;15.75;4.80;;;9.80;99.90;;;;;;5019184;28;20030;-82
2024/02/21 00:27:34;;;;;;;19.30;4.75;;;9.80;99.90;;;;;;5019587;28;20489;-82
2024/02/21 00:30:00;;;;;;;16.90;4.97;;;9.70;99.90;;;;;;5002320;28;20046;-82
2024/02/21 00:32:25;;;;;;;15.48;4.70;;;9.60;99.90;;;;;;5001515;28;20297;-83
2024/02/21 00:34:51;;;;;;;18.83;5.72;;;9.70;99.90;;;;;;5019151;28;20408;-82
2024/02/21 00:37:17;;;;;;;16.85;4.07;;;9.60;99.90;;;;;;5018084;28;20091;-82
2024/02/21 00:39:43;;;;;;;20.30;5.32;;;9.70;99.90;;;;;;5000307;28;20038;-82
2024/02/21 00:42:09;;;;;;;16.73;4.53;;;9.60;99.90;;;;;;5018440;28;20072;-82
2024/02/21 00:44:34;;;;;;;13.95;4.43;;;9.50;99.90;;;;;;5000289;28;20033;-82
2024/02/21 00:47:00;;;;;;;12.57;3.85;;;9.60;99.90;;;;;;5018771;28;20052;-82
2024/02/21 00:49:26;;;;;;;21.23;4.32;;;9.60;99.90;;;;;;5019351;28;20052;-82
2024/02/21 00:51:51;;;;;;;16.95;4.38;;;9.60;99.90;;;;;;4984805;28;20048;-82
2024/02/21 00:54:17;;;;;;;12.73;4.80;;;9.50;99.90;;;;;;5019010;28;20033;-82
2024/02/21 00:56:43;;;;;;;15.82;4.32;;;9.50;99.90;;;;;;4984945;28;20049;-83
2024/02/21 00:59:08;;;;;;;20.73;4.25;;;9.40;99.90;;;;;;5001560;28;20053;-83
2024/02/21 01:01:34;;;;;;;16.45;5.00;;;9.40;99.90;;;;;;5000610;28;20121;-82
2024/02/21 01:04:00;;;;;;;18.70;5.10;;;9.40;99.90;;;;;;5000177;28;20121;-82
2024/02/21 01:06:25;;;;;;;12.43;5.75;;;9.40;99.90;;;;;;5001154;28;20097;-82
2024/02/21 01:08:51;;;;;;;20.67;4.82;;;9.30;99.90;;;;;;5022731;28;20042;-82
2024/02/21 01:11:17;;;;;;;17.85;4.53;;;9.30;99.90;;;;;;5004226;28;20038;-82
2024/02/21 01:13:43;;;;;;;25.55;5.60;;;9.30;99.90;;;;;;5004995;28;20044;-82
2024/02/21 01:16:09;;;;;;;16.95;5.18;;;9.40;99.90;;;;;;5023985;28;20049;-82
2024/02/21 01:18:37;;;;;;;16.83;4.38;;;9.50;99.90;;;;;;5023499;28;20042;-82
2024/02/21 01:21:06;;;;;;;17.13;5.47;;;9.40;99.90;;;;;;5023296;28;20034;-82
2024/02/21 01:23:36;;;;;;;22.02;7.35;;;9.30;99.90;;;;;;5004704;28;20094;-82
2024/02/21 01:26:04;;;;;;;17.33;5.13;;;9.30;99.90;;;;;;5004606;28;20436;-82
2024/02/21 01:28:30;;;;;;;17.27;4.68;;;9.40;99.90;;;;;;5004569;28;20041;-83
2024/02/21 01:30:56;;;;;;;18.08;5.43;;;9.30;99.90;;;;;;5004586;28;20517;-83
2024/02/21 01:33:22;;;;;;;20.83;5.95;;;9.50;99.90;;;;;;5023352;28;20088;-82
2024/02/21 01:35:49;;;;;;;15.07;5.50;;;9.30;99.90;;;;;;5004497;28;20038;-82
2024/02/21 01:38:14;;;;;;;18.88;6.65;;;9.50;99.90;;;;;;5004819;28;20046;-82
2024/02/21 01:40:40;;;;;;;19.02;6.43;;;9.40;99.90;;;;;;5004407;28;20049;-82
2024/02/21 01:43:19;;;;;;;30.08;7.80;;;9.50;99.90;;;;;;5022164;28;20034;-82
2024/02/21 01:45:55;;;;;;;23.65;6.85;;;9.50;99.90;;;;;;5004743;28;20084;-83
2024/02/21 01:48:25;;;;;;;18.67;6.78;;;9.50;99.90;;;;;;4988069;28;20072;-82
2024/02/21 01:50:51;;;;;;;19.52;6.85;;;9.30;99.90;;;;;;4988790;28;20080;-82
2024/02/21 01:53:21;;;;;;;19.95;7.05;;;9.30;99.90;;;;;;5024311;28;20056;-82
2024/02/21 01:55:47;;;;;;;21.90;7.10;;;9.30;99.90;;;;;;5005849;28;20092;-82
2024/02/21 01:58:16;;;;;;;18.60;6.68;;;9.50;99.90;;;;;;5022347;28;20502;-82
2024/02/21 02:00:43;;;;;;;20.00;6.93;;;9.40;99.90;;;;;;5022314;28;20045;-82
2024/02/21 02:03:16;;;;;;;16.77;6.15;;;9.50;99.90;;;;;;5004627;28;20038;-82
2024/02/21 02:05:49;;;;;;;14.45;6.78;;;9.40;99.90;;;;;;5022609;28;20044;-82
2024/02/21 02:08:16;;;;;;;24.05;6.50;;;9.20;99.90;;;;;;5003237;28;20048;-81
2024/02/21 02:10:43;;;;;;;14.52;7.47;;;9.20;99.90;;;;;;5004142;28;20049;-82
2024/02/21 02:13:08;;;;;;;17.83;6.25;;;9.30;99.90;;;;;;5003852;28;20046;-82
2024/02/21 02:15:41;;;;;;;16.88;6.95;;;9.30;99.90;;;;;;5003998;28;20064;-81
2024/02/21 02:18:07;;;;;;;12.70;7.22;;;9.40;99.90;;;;;;4987613;28;20080;-82
2024/02/21 02:20:32;;;;;;;17.63;6.45;;;9.20;99.90;;;;;;5003936;28;20038;-81
2024/02/21 02:23:10;;;;;;;28.05;7.40;;;9.20;99.90;;;;;;5003431;28;20056;-81
2024/02/21 02:25:37;;;;;;;21.42;8.30;;;9.40;99.90;;;;;;5002981;28;20038;-82
2024/02/21 02:28:07;;;;;;;17.27;7.13;;;9.30;99.90;;;;;;5005949;28;20120;-82
2024/02/21 02:30:34;;;;;;;16.88;7.22;;;9.40;99.90;;;;;;5024543;28;20040;-82
2024/02/21 02:33:00;;;;;;;16.27;8.30;;;9.20;99.90;;;;;;5007266;28;20042;-82
2024/02/21 02:35:26;;;;;;;18.98;8.10;;;9.30;99.90;;;;;;5007429;28;20058;-82
2024/02/21 02:37:51;;;;;;;27.02;8.57;;;9.20;99.90;;;;;;5023461;28;20045;-82
2024/02/21 02:40:18;;;;;;;21.77;8.57;;;9.20;99.90;;;;;;5005361;28;20095;-82
2024/02/21 02:42:44;;;;;;;16.83;8.25;;;9.40;99.90;;;;;;5006223;28;20038;-81
2024/02/21 02:45:10;;;;;;;19.13;8.18;;;9.40;99.90;;;;;;5006242;28;20044;-82
2024/02/21 02:47:35;;;;;;;21.48;7.90;;;9.30;99.90;;;;;;4989806;28;20072;-82
2024/02/21 02:50:01;;;;;;;19.58;8.13;;;9.20;99.90;;;;;;4989139;28;20129;-82
2024/02/21 02:52:27;;;;;;;19.75;9.23;;;9.30;99.90;;;;;;4989440;28;20077;-82
2024/02/21 02:54:55;;;;;;;22.58;9.18;;;9.10;99.90;;;;;;5004829;28;20052;-81
2024/02/21 02:57:21;;;;;;;19.70;7.93;;;9.20;99.90;;;;;;5004172;28;20098;-82
2024/02/21 02:59:51;;;;;;;18.45;8.32;;;9.20;99.90;;;;;;5004573;28;20076;-82
2024/02/21 03:02:17;;;;;;;19.38;9.40;;;9.40;99.90;;;;;;5004943;28;20038;-82
2024/02/21 03:04:43;;;;;;;24.63;9.15;;;9.10;99.90;;;;;;4988100;28;20421;-82
2024/02/21 03:07:09;;;;;;;18.02;9.40;;;9.40;99.90;;;;;;5004664;28;20046;-82
2024/02/21 03:09:34;;;;;;;19.63;9.00;;;9.20;99.90;;;;;;5022481;28;20042;-82
2024/02/21 03:12:02;;;;;;;30.63;11.57;;;9.20;99.90;;;;;;5003557;28;20052;-82
2024/02/21 03:14:29;;;;;;;29.73;11.27;;;9.40;99.90;;;;;;5004882;28;20072;-82
2024/02/21 03:16:54;;;;;;;28.08;10.23;;;9.30;99.90;;;;;;5022072;28;20041;-82
2024/02/21 03:19:20;;;;;;;24.40;11.20;;;9.10;99.90;;;;;;5003850;28;20056;-82
2024/02/21 03:21:46;;;;;;;25.25;10.15;;;9.20;99.90;;;;;;5021604;28;20038;-82
2024/02/21 03:24:11;;;;;;;22.30;9.75;;;9.10;99.90;;;;;;5003769;28;20145;-82
2024/02/21 03:26:37;;;;;;;31.52;11.05;;;9.10;99.90;;;;;;5020789;28;20068;-82
2024/02/21 03:29:03;;;;;;;26.40;10.50;;;9.30;99.90;;;;;;5021647;28;20092;-82
2024/02/21 03:31:29;;;;;;;21.52;9.82;;;9.10;99.90;;;;;;5020293;28;20041;-82
2024/02/21 03:33:55;;;;;;;29.75;11.45;;;9.40;99.90;;;;;;5021691;28;20075;-81
2024/02/21 03:36:20;;;;;;;30.40;10.30;;;9.20;99.90;;;;;;5003188;28;20046;-82
2024/02/21 03:38:47;;;;;;;24.05;11.70;;;9.10;99.90;;;;;;4987258;28;20049;-82
2024/02/21 03:41:13;;;;;;;26.73;11.48;;;9.20;99.90;;;;;;5020828;28;20041;-82
2024/02/21 03:43:39;;;;;;;30.60;11.38;;;9.10;99.90;;;;;;5002320;28;20041;-82
2024/02/21 03:46:04;;;;;;;31.55;11.25;;;9.20;99.90;;;;;;4985901;28;20442;-82
2024/02/21 03:48:30;;;;;;;30.02;10.60;;;9.10;99.90;;;;;;5020817;28;20034;-82
2024/02/21 03:50:56;;;;;;;27.73;10.93;;;9.30;99.90;;;;;;5020881;28;20042;-82
2024/02/21 03:53:21;;;;;;;46.15;12.77;;;9.30;99.90;;;;;;5022094;28;20046;-81
2024/02/21 03:55:47;;;;;;;32.90;12.15;;;9.40;99.90;;;;;;5004566;28;20080;-82
2024/02/21 03:58:13;;;;;;;36.25;11.32;;;9.10;99.90;;;;;;5007381;28;20080;-82
2024/02/21 04:00:39;;;;;;;28.95;12.38;;;9.20;99.90;;;;;;5008027;28;20114;-83
2024/02/21 04:03:04;;;;;;;30.63;11.73;;;9.30;99.90;;;;;;4991799;28;20502;-82
2024/02/21 04:05:30;;;;;;;31.50;13.38;;;9.10;99.90;;;;;;5008168;28;20045;-83
2024/02/21 04:07:55;;;;;;;33.55;12.90;;;9.10;99.90;;;;;;5006693;28;20102;-82
2024/02/21 04:10:21;;;;;;;31.42;11.75;;;9.20;99.90;;;;;;5006808;28;20128;-82
2024/02/21 04:12:50;;;;;;;34.50;11.93;;;9.10;99.90;;;;;;5006763;28;20041;-83
2024/02/21 04:15:16;;;;;;;25.92;11.40;;;9.10;99.90;;;;;;4989899;28;20050;-82
2024/02/21 04:17:41;;;;;;;27.88;11.68;;;9.30;99.90;;;;;;5023116;28;20724;-82
2024/02/21 04:20:14;;;;;;;27.50;11.27;;;9.10;99.90;;;;;;5023830;28;20037;-82
2024/02/21 04:22:40;;;;;;;27.95;11.38;;;9.40;99.90;;;;;;5006170;28;20061;-82
2024/02/21 04:25:06;;;;;;;23.98;9.95;;;9.00;99.90;;;;;;5023429;28;20049;-81
2024/02/21 04:27:32;;;;;;;20.67;10.38;;;9.30;99.90;;;;;;5005189;28;20049;-82
2024/02/21 04:29:57;;;;;;;20.88;9.32;;;9.10;99.90;;;;;;5023360;28;20038;-82
2024/02/21 04:32:23;;;;;;;25.95;10.80;;;9.30;99.90;;;;;;5022794;28;20046;-82
2024/02/21 04:34:49;;;;;;;20.42;9.13;;;9.10;99.90;;;;;;5005131;28;20125;-82
2024/02/21 04:37:14;;;;;;;21.60;9.27;;;9.00;99.90;;;;;;5022877;28;20110;-82
2024/02/21 04:39:40;;;;;;;20.33;8.45;;;9.00;99.90;;;;;;5023562;28;20713;-82
2024/02/21 04:42:06;;;;;;;27.20;9.68;;;9.00;99.90;;;;;;4987867;28;20065;-82
2024/02/21 04:44:31;;;;;;;26.55;9.10;;;9.20;99.90;;;;;;5005215;28;20505;-81
2024/02/21 04:46:58;;;;;;;28.13;9.07;;;9.20;99.90;;;;;;4987795;28;20042;-82
2024/02/21 04:49:23;;;;;;;21.50;9.52;;;9.10;99.90;;;;;;5004812;28;20049;-82
2024/02/21 04:51:49;;;;;;;19.70;9.02;;;9.30;99.90;;;;;;5003063;28;20042;-82
2024/02/21 04:54:15;;;;;;;28.75;9.32;;;9.30;99.90;;;;;;5021507;28;20093;-82
2024/02/21 04:56:40;;;;;;;24.75;8.20;;;9.10;99.90;;;;;;5022748;28;20498;-82
2024/02/21 04:59:06;;;;;;;25.27;8.27;;;9.30;99.90;;;;;;5021308;28;20519;-82
2024/02/21 05:01:32;;;;;;;32.20;11.43;;;9.30;99.90;;;;;;5005150;28;20065;-81
2024/02/21 05:03:57;;;;;;;23.55;9.90;;;9.10;99.90;;;;;;5004935;28;20061;-82
2024/02/21 05:06:23;;;;;;;29.00;11.02;;;9.30;99.90;;;;;;5005644;28;20112;-81
2024/02/21 05:08:49;;;;;;;22.58;9.20;;;9.10;99.90;;;;;;5023106;28;20076;-81
2024/02/21 05:11:14;;;;;;;27.00;9.48;;;9.30;99.90;;;;;;5023229;28;20110;-81
2024/02/21 05:13:40;;;;;;;31.20;9.23;;;9.10;99.90;;;;;;5005056;28;20902;-81
2024/02/21 05:16:06;;;;;;;32.72;11.18;;;9.30;99.90;;;;;;5005445;28;20045;-81
2024/02/21 05:18:33;;;;;;;32.35;9.35;;;9.10;99.90;;;;;;5023347;28;20105;-81
2024/02/21 05:20:59;;;;;;;20.48;8.65;;;9.30;99.90;;;;;;4980248;28;20038;-81
2024/02/21 05:23:25;;;;;;;28.88;8.93;;;9.30;99.90;;;;;;4984473;28;20149;-82
2024/02/21 05:25:51;;;;;;;23.35;9.63;;;9.30;99.90;;;;;;4985676;28;20038;-81
2024/02/21 05:28:16;;;;;;;25.90;9.05;;;9.10;99.90;;;;;;4988691;28;20038;-81
2024/02/21 05:30:43;;;;;;;22.85;9.45;;;9.10;99.90;;;;;;5007826;28;20121;-81
2024/02/21 05:33:08;;;;;;;26.63;10.18;;;9.30;99.90;;;;;;5008495;28;20043;-82
2024/02/21 05:35:35;;;;;;;29.13;10.00;;;9.10;99.90;;;;;;5008318;28;20038;-81
2024/02/21 05:38:01;;;;;;;30.67;10.93;;;9.10;99.90;;;;;;5007273;28;20042;-81
2024/02/21 05:40:26;;;;;;;28.00;9.35;;;9.30;99.90;;;;;;4973625;28;20549;-82
2024/02/21 05:42:52;;;;;;;23.27;8.82;;;9.30;99.90;;;;;;5008559;28;20035;-81
2024/02/21 05:45:18;;;;;;;32.03;10.05;;;9.10;99.90;;;;;;5007232;28;20034;-82
2024/02/21 05:47:44;;;;;;;32.72;8.75;;;9.20;99.90;;;;;;4989372;28;20042;-81
2024/02/21 05:50:10;;;;;;;37.05;9.23;;;9.30;99.90;;;;;;4989212;28;20042;-81
2024/02/21 05:52:36;;;;;;;34.05;8.90;;;9.30;99.90;;;;;;4989073;28;20453;-81
2024/02/21 05:55:03;;;;;;;31.35;10.20;;;9.30;99.90;;;;;;5008498;28;20101;-82
2024/02/21 05:57:28;;;;;;;24.92;10.10;;;9.10;99.90;;;;;;4975233;28;20081;-81
2024/02/21 05:59:54;;;;;;;31.10;9.45;;;9.10;99.90;;;;;;4974494;28;20038;-81
2024/02/21 06:02:20;;;;;;;29.90;9.65;;;9.20;99.90;;;;;;4974019;28;20057;-81
2024/02/21 06:04:46;;;;;;;26.95;10.20;;;9.30;99.90;;;;;;4990641;28;20086;-81
2024/02/21 06:07:12;;;;;;;28.75;10.07;;;9.30;99.90;;;;;;4990833;28;20047;-81
2024/02/21 06:09:37;;;;;;;41.30;11.48;;;9.10;99.90;;;;;;4989991;28;20129;-81
2024/02/21 06:12:03;;;;;;;27.00;11.80;;;9.20;99.90;;;;;;5006483;28;20505;-82
2024/02/21 06:14:29;;;;;;;27.42;9.75;;;9.10;99.90;;;;;;4988150;28;20042;-82
2024/02/21 06:16:54;;;;;;;25.33;10.27;;;9.30;99.90;;;;;;5006046;28;20046;-82
2024/02/21 06:19:20;;;;;;;26.42;10.30;;;9.30;99.90;;;;;;5006943;28;20034;-82
2024/02/21 06:21:45;;;;;;;25.58;10.02;;;9.10;99.90;;;;;;4987906;28;20463;-81
2024/02/21 06:24:12;;;;;;;40.90;11.15;;;9.10;99.90;;;;;;4988990;28;20664;-81
2024/02/21 06:26:40;;;;;;;37.42;10.85;;;9.10;99.90;;;;;;4986181;28;20105;-82
2024/02/21 06:29:05;;;;;;;31.33;9.80;;;9.30;99.90;;;;;;5003870;28;20042;-81
2024/02/21 06:31:31;;;;;;;23.08;9.45;;;9.30;99.90;;;;;;5001370;28;20502;-81
2024/02/21 06:33:57;;;;;;;33.80;10.65;;;9.10;99.90;;;;;;4969400;28;20077;-81
2024/02/21 06:36:23;;;;;;;29.05;11.63;;;9.30;99.90;;;;;;4986890;28;20048;-81
2024/02/21 06:38:48;;;;;;;31.55;11.23;;;9.10;99.90;;;;;;5004154;28;20490;-81
2024/02/21 06:41:21;;;;;;;41.63;11.98;;;9.10;99.90;;;;;;4970018;28;20089;-81
2024/02/21 06:43:47;;;;;;;23.53;9.90;;;9.10;99.90;;;;;;4985969;28;20081;-81
2024/02/21 06:46:22;;;;;;;36.47;11.77;;;9.10;99.90;;;;;;4986218;28;20521;-81
2024/02/21 06:48:48;;;;;;;25.75;12.52;;;9.10;99.90;;;;;;5005685;28;20069;-82
2024/02/21 06:51:13;;;;;;;34.95;12.85;;;9.30;99.90;;;;;;5004605;28;20038;-81
2024/02/21 06:53:40;;;;;;;35.30;14.60;;;9.10;99.90;;;;;;4986311;28;20453;-81
2024/02/21 06:56:06;;;;;;;36.88;14.90;;;9.30;99.90;;;;;;4986843;28;20099;-80
2024/02/21 06:58:31;;;;;;;35.30;14.95;;;9.20;99.90;;;;;;4985095;28;20479;-81
2024/02/21 07:00:57;;;;;;;45.22;17.23;;;9.10;99.90;;;;;;4986551;28;20049;-81
2024/02/21 07:03:24;;;;;;;46.47;16.08;;;9.20;99.90;;;;;;4986626;28;20034;-81
2024/02/21 07:05:50;;;;;;;46.33;17.40;;;9.20;99.90;;;;;;4968147;28;20121;-81
2024/02/21 07:08:15;;;;;;;52.97;16.55;;;9.30;99.90;;;;;;4984856;28;20089;-81
2024/02/21 07:10:41;;;;;;;41.70;16.95;;;9.20;99.90;;;;;;4986597;28;20091;-81
2024/02/21 07:13:07;;;;;;;52.17;18.90;;;9.10;99.90;;;;;;4988307;28;20506;-81
2024/02/21 07:15:33;;;;;;;44.80;15.77;;;9.20;99.90;;;;;;5007086;28;20038;-81
2024/02/21 07:17:59;;;;;;;51.92;18.85;;;9.30;99.90;;;;;;5006755;28;20057;-81
2024/02/21 07:20:24;;;;;;;51.60;16.17;;;9.10;99.90;;;;;;4986570;28;20569;-81
2024/02/21 07:22:50;;;;;;;44.30;14.38;;;9.20;99.90;;;;;;5008266;28;20046;-81
2024/02/21 07:25:16;;;;;;;49.67;16.85;;;9.30;99.90;;;;;;4993789;28;20038;-82
2024/02/21 07:27:43;;;;;;;47.28;14.57;;;9.30;99.90;;;;;;5010934;28;20081;-81
2024/02/21 07:30:09;;;;;;;50.63;13.85;;;9.30;99.90;;;;;;5009875;28;20043;-81
2024/02/21 07:32:35;;;;;;;41.30;12.95;;;9.10;99.90;;;;;;4992943;28;20102;-81
2024/02/21 07:35:00;;;;;;;47.92;13.27;;;9.40;99.90;;;;;;5007507;28;20038;-81
2024/02/21 07:37:26;;;;;;;39.20;12.20;;;9.10;99.90;;;;;;5008661;28;20038;-81
2024/02/21 07:39:52;;;;;;;38.40;12.32;;;9.20;99.90;;;;;;4990751;28;20050;-81
2024/02/21 07:42:17;;;;;;;38.03;10.82;;;9.40;99.90;;;;;;4990752;28;20030;-81
2024/02/21 07:44:43;;;;;;;33.95;10.95;;;9.20;99.90;;;;;;4990113;28;20045;-82
2024/02/21 07:47:08;;;;;;;32.10;9.40;;;9.20;99.90;;;;;;4989588;28;20052;-82
2024/02/21 07:49:42;;;;;;;29.75;10.05;;;9.50;99.90;;;;;;4987474;28;20069;-81
2024/02/21 07:52:08;;;;;;;27.38;9.65;;;9.40;99.90;;;;;;4988290;28;20038;-82
2024/02/21 07:54:34;;;;;;;26.92;9.27;;;9.30;99.90;;;;;;4985802;28;20086;-81
2024/02/21 07:56:59;;;;;;;29.90;9.70;;;9.30;99.90;;;;;;5003438;28;20034;-81
2024/02/21 07:59:25;;;;;;;35.97;9.32;;;9.30;99.90;;;;;;4984713;28;20049;-81
2024/02/21 08:01:50;;;;;;;31.65;9.40;;;9.50;99.90;;;;;;4984551;28;20804;-81
2024/02/21 08:04:16;;;;;;;27.20;8.60;;;9.50;99.90;;;;;;4984090;28;20038;-81
2024/02/21 08:06:42;;;;;;;29.45;8.73;;;9.40;99.90;;;;;;4985434;28;20042;-79
2024/02/21 08:09:07;;;;;;;33.85;9.50;;;9.40;99.90;;;;;;5004085;28;20121;-81
2024/02/21 08:11:33;;;;;;;32.38;8.07;;;9.60;99.90;;;;;;4985875;28;20042;-81
2024/02/21 08:13:58;;;;;;;22.92;8.18;;;9.50;99.90;;;;;;4973218;28;20094;-81
2024/02/21 08:16:24;;;;;;;14.73;6.75;;;9.50;99.90;;;;;;5001246;28;20078;-81
2024/02/21 08:18:50;;;;;;;18.15;7.28;;;9.50;99.90;;;;;;4988220;28;20043;-80
2024/02/21 08:21:16;;;;;;;18.40;7.57;;;9.40;99.90;;;;;;4970032;28;20034;-80
2024/02/21 08:23:42;;;;;;;24.80;8.18;;;9.50;99.90;;;;;;4997709;28;20038;-81
2024/02/21 08:26:07;;;;;;;17.98;6.97;;;9.50;99.90;;;;;;4976987;28;20048;-80
2024/02/21 08:28:33;;;;;;;20.65;7.47;;;9.30;99.90;;;;;;4983231;28;20106;-82
2024/02/21 08:30:59;;;;;;;29.98;8.18;;;9.50;99.90;;;;;;4995863;28;20045;-82
2024/02/21 08:33:25;;;;;;;22.80;8.73;;;9.50;99.90;;;;;;4979540;28;20066;-82
2024/02/21 08:35:53;;;;;;;27.23;9.23;;;9.50;99.90;;;;;;4991258;28;20046;-82
2024/02/21 08:38:19;;;;;;;24.58;7.70;;;9.50;99.90;;;;;;4972817;28;20049;-81
2024/02/21 08:40:44;;;;;;;26.48;8.57;;;9.30;99.90;;;;;;4970514;28;20134;-80
2024/02/21 08:43:10;;;;;;;24.83;8.20;;;9.40;99.90;;;;;;4971033;28;20037;-77
2024/02/21 08:45:35;;;;;;;28.30;9.88;;;9.40;99.90;;;;;;4965642;28;20063;-79
2024/02/21 08:48:01;;;;;;;27.10;9.32;;;9.60;99.90;;;;;;4964164;28;20097;-80
2024/02/21 08:50:27;;;;;;;25.42;9.60;;;9.60;99.90;;;;;;4963645;28;20043;-80
2024/02/21 08:52:53;;;;;;;29.33;12.18;;;9.40;99.90;;;;;;4968275;28;20053;-82
2024/02/21 08:55:19;;;;;;;20.13;10.50;;;9.50;99.90;;;;;;4960105;28;20035;-80
2024/02/21 08:57:44;;;;;;;29.35;13.05;;;9.50;99.90;;;;;;4993057;28;20085;-82
2024/02/21 09:00:10;;;;;;;32.78;13.45;;;9.60;99.90;;;;;;4970860;28;20402;-81
2024/02/21 09:02:44;;;;;;;30.73;14.50;;;9.60;99.90;;;;;;4964800;28;20125;-79
2024/02/21 09:05:11;;;;;;;30.40;13.40;;;9.60;99.90;;;;;;4978728;28;20039;-80
2024/02/21 09:07:36;;;;;;;28.30;12.77;;;9.50;99.90;;;;;;5005939;28;20047;-80
2024/02/21 09:10:03;;;;;;;35.33;14.85;;;9.40;99.90;;;;;;4970690;28;20118;-80
2024/02/21 09:12:29;;;;;;;27.95;13.68;;;9.50;99.90;;;;;;4998857;28;20153;-80
2024/02/21 09:14:55;;;;;;;32.70;14.10;;;9.50;99.90;;;;;;4949862;28;20042;-80
2024/02/21 09:17:20;;;;;;;26.85;13.32;;;9.60;99.90;;;;;;4982331;28;20517;-80
2024/02/21 09:19:47;;;;;;;31.27;14.88;;;9.50;99.90;;;;;;4965366;28;20082;-80
2024/02/21 09:22:13;;;;;;;33.63;14.65;;;9.50;99.90;;;;;;4997640;28;20093;-80
2024/02/21 09:24:39;;;;;;;30.05;14.27;;;9.50;99.90;;;;;;4946617;28;20450;-80
2024/02/21 09:27:05;;;;;;;37.55;14.98;;;9.70;99.90;;;;;;4963667;28;20519;-80
2024/02/21 09:29:32;;;;;;;32.35;14.60;;;9.70;99.90;;;;;;4967004;28;20085;-79
2024/02/21 09:31:59;;;;;;;32.03;13.35;;;9.50;99.90;;;;;;4970385;28;20388;-81
2024/02/21 09:34:25;;;;;;;29.63;14.32;;;9.50;99.90;;;;;;5000971;28;20046;-82
2024/02/21 09:36:50;;;;;;;31.90;14.27;;;9.70;99.90;;;;;;4984826;28;20046;-80
2024/02/21 09:39:18;;;;;;;29.73;13.25;;;9.70;99.90;;;;;;4967401;28;20551;-80
2024/02/21 09:41:52;;;;;;;28.85;13.85;;;9.70;99.90;;;;;;4966769;28;20042;-81
2024/02/21 09:44:19;;;;;;;29.27;14.10;;;9.60;99.90;;;;;;4966101;28;20130;-80
2024/02/21 09:47:05;;;;;;;26.80;13.50;;;9.60;99.90;;;;;;4967273;28;20131;-81
2024/02/21 09:49:37;;;;;;;24.90;14.38;;;9.70;99.90;;;;;;4984073;28;20546;-80
2024/02/21 09:52:06;;;;;;;31.48;15.10;;;9.60;99.90;;;;;;4966709;28;20475;-81
2024/02/21 09:54:33;;;;;;;22.20;14.20;;;9.60;99.90;;;;;;4968830;28;20405;-81
2024/02/21 09:57:00;;;;;;;29.80;16.15;;;9.50;99.90;;;;;;4987659;28;20450;-81
2024/02/21 09:59:28;;;;;;;36.35;16.67;;;9.50;99.90;;;;;;4978043;28;20178;-82
2024/02/21 10:01:54;;;;;;;28.75;17.08;;;9.60;99.90;;;;;;4998798;28;20053;-81
2024/02/21 10:04:20;;;;;;;32.47;16.77;;;9.70;99.90;;;;;;5002873;28;20038;-81
2024/02/21 10:06:46;;;;;;;29.33;17.48;;;9.60;99.90;;;;;;5005166;28;20061;-81
2024/02/21 10:09:29;;;;;;;34.42;17.30;;;9.60;99.90;;;;;;5003083;28;20053;-81
2024/02/21 10:12:11;;;;;;;32.40;16.77;;;9.70;99.90;;;;;;5005095;28;20049;-81
2024/02/21 10:14:37;;;;;;;31.88;18.48;;;9.60;99.90;;;;;;4988228;28;20042;-81
2024/02/21 10:17:04;;;;;;;30.88;16.83;;;9.60;99.90;;;;;;5003233;28;20522;-80
2024/02/21 10:19:30;;;;;;;28.83;17.00;;;9.60;99.90;;;;;;4985057;28;20042;-80
2024/02/21 10:22:04;;;;;;;26.65;16.92;;;9.70;99.90;;;;;;5003614;28;20041;-81
2024/02/21 10:24:32;;;;;;;28.80;17.20;;;9.80;99.90;;;;;;5000997;28;20391;-81
2024/02/21 10:27:08;;;;;;;35.40;18.52;;;9.70;99.90;;;;;;4977941;28;20176;-81
2024/02/21 10:29:34;;;;;;;31.95;17.75;;;9.70;99.90;;;;;;4968305;28;20042;-80
2024/02/21 10:32:11;;;;;;;36.00;18.98;;;9.70;99.90;;;;;;4967212;28;20050;-80
2024/02/21 10:34:38;;;;;;;34.30;17.33;;;9.70;99.90;;;;;;5024524;22;20088;-73
2024/02/21 10:37:11;;;;;;;33.58;17.20;;;9.90;99.90;;;;;;4996446;28;20092;-73
2024/02/21 10:39:39;;;;;;;34.67;18.83;;;9.80;99.90;;;;;;5014087;28;20053;-73
2024/02/21 10:42:05;;;;;;;30.42;17.25;;;9.90;99.90;;;;;;4995720;28;20104;-73
2024/02/21 10:44:32;;;;;;;36.30;18.52;;;9.90;99.90;;;;;;4996367;28;20042;-73
2024/02/21 10:46:58;;;;;;;32.55;17.25;;;10.00;99.90;;;;;;4996361;28;20042;-73
2024/02/21 10:49:29;;;;;;;27.85;17.25;;;9.90;99.90;;;;;;4996230;28;20048;-73
2024/02/21 10:52:09;;;;;;;29.42;17.58;;;10.10;99.90;;;;;;5013759;28;20042;-73
2024/02/21 10:54:45;;;;;;;33.88;18.23;;;10.00;99.90;;;;;;4996497;28;20488;-73
2024/02/21 10:57:14;;;;;;;41.63;18.42;;;10.20;99.90;;;;;;5012991;28;20505;-73
2024/02/21 10:59:40;;;;;;;30.63;17.15;;;10.10;99.90;;;;;;4995431;28;20033;-73
2024/02/21 11:02:06;;;;;;;35.08;18.67;;;10.10;99.90;;;;;;4995459;28;20506;-73
2024/02/21 11:04:36;;;;;;;33.00;16.88;;;10.20;99.90;;;;;;4995478;28;20044;-73
2024/02/21 11:07:06;;;;;;;30.40;17.13;;;10.30;99.90;;;;;;4995477;28;20498;-73
2024/02/21 11:09:32;;;;;;;39.70;18.60;;;10.30;99.90;;;;;;5013387;28;20426;-73
2024/02/21 11:12:00;;;;;;;29.38;16.10;;;10.30;99.90;;;;;;4995713;28;20086;-73
2024/02/21 11:14:28;;;;;;;30.52;15.35;;;10.40;99.90;;;;;;4995976;28;20065;-72
2024/02/21 11:16:55;;;;;;;27.63;15.27;;;10.40;99.90;;;;;;5013269;28;20104;-73
2024/02/21 11:19:28;;;;;;;32.50;15.02;;;10.60;99.90;;;;;;4995563;28;20512;-73
2024/02/21 11:21:57;;;;;;;26.58;14.73;;;10.50;99.90;;;;;;4995853;28;20042;-73
2024/02/21 11:24:30;;;;;;;24.83;14.95;;;10.50;99.90;;;;;;4995723;28;20493;-73
2024/02/21 11:26:56;;;;;;;;;;;10.50;99.90;;;;;;5013732;28;20033;-73
2024/02/21 11:29:26;;;;;;;27.42;14.88;;;10.60;99.90;;;;;;4995569;28;19983;-73
2024/02/21 11:31:52;;;;;;;23.20;14.30;;;10.60;99.90;;;;;;5009681;28;20065;-73
2024/02/21 11:34:19;;;;;;;23.63;14.38;;;10.70;99.90;;;;;;4994660;28;20112;-73
2024/02/21 11:36:49;;;;;;;28.92;16.65;;;10.60;99.90;;;;;;4995044;28;20046;-73
2024/02/21 11:39:20;;;;;;;24.83;13.70;;;10.60;99.90;;;;;;5012850;28;20030;-73
2024/02/21 11:41:47;;;;;;;23.30;13.90;;;10.60;99.90;;;;;;4995489;28;20116;-73
2024/02/21 11:44:12;;;;;;;19.10;12.48;;;10.50;99.90;;;;;;4978952;28;20065;-72
2024/02/21 11:46:38;;;;;;;22.27;11.63;;;10.60;99.90;;;;;;4995339;28;20042;-73
2024/02/21 11:49:04;;;;;;;21.52;12.07;;;10.50;99.90;;;;;;4995306;28;20132;-73
2024/02/21 11:51:29;;;;;;;22.00;11.80;;;10.50;99.90;;;;;;5011927;28;20045;-73
2024/02/21 11:53:55;;;;;;;21.15;11.93;;;10.60;99.90;;;;;;4995297;28;20045;-73
2024/02/21 11:56:22;;;;;;;20.33;11.55;;;10.50;99.90;;;;;;4995083;28;20034;-73
2024/02/21 11:58:48;;;;;;;17.13;10.70;;;10.60;99.90;;;;;;4994740;28;20046;-74
2024/02/21 12:01:14;;;;;;;21.25;11.57;;;10.50;99.90;;;;;;4994770;28;20037;-73
2024/02/21 12:03:41;;;;;;;18.55;10.43;;;10.50;99.90;;;;;;4994866;28;20034;-74
2024/02/21 12:06:08;;;;;;;18.75;9.93;;;10.50;99.90;;;;;;4995048;28;20418;-73
2024/02/21 12:08:43;;;;;;;20.10;11.38;;;10.50;99.90;;;;;;4994785;28;20498;-74
2024/02/21 12:11:24;;;;;;;19.23;10.18;;;10.40;99.90;;;;;;4994574;28;20042;-74
2024/02/21 12:14:01;;;;;;;19.02;10.85;;;10.50;99.90;;;;;;4994761;28;20041;-74
2024/02/21 12:16:30;;;;;;;18.38;10.32;;;10.40;99.90;;;;;;4978531;28;20120;-73
2024/02/21 12:18:57;;;;;;;18.25;9.98;;;10.40;99.90;;;;;;4994062;28;20102;-74
2024/02/21 12:21:38;;;;;;;18.95;10.38;;;10.40;99.90;;;;;;4992098;28;20046;-73
2024/02/21 12:24:14;;;;;;;18.00;9.38;;;10.40;99.90;;;;;;4994640;28;20041;-73
2024/02/21 12:26:40;;;;;;;18.48;9.07;;;10.40;99.90;;;;;;4994621;28;20411;-73
2024/02/21 12:29:06;;;;;;;17.40;10.45;;;10.40;99.90;;;;;;4995008;28;20096;-74
2024/02/21 12:31:32;;;;;;;16.20;9.48;;;10.40;99.90;;;;;;4995365;28;20053;-73
2024/02/21 12:33:59;;;;;;;16.42;9.60;;;10.30;99.90;;;;;;5011945;28;20038;-73
2024/02/21 12:36:26;;;;;;;18.98;10.20;;;10.30;99.90;;;;;;4994591;28;20054;-74
2024/02/21 12:38:51;;;;;;;18.92;9.88;;;10.40;99.90;;;;;;4994226;28;20038;-74